sensor_id;sensor_type;location;lat;lon;timestamp;temperature;humidity
5808;DHT22;2930;42.678;23.312;2023-02-22T00:00:50;8.50;65.60
5808;DHT22;2930;42.678;23.312;2023-02-22T00:03:18;8.40;66.20
5808;DHT22;2930;42.678;23.312;2023-02-22T00:05:51;8.40;66.20
5808;DHT22;2930;42.678;23.312;2023-02-22T00:08:21;8.30;66.20
5808;DHT22;2930;42.678;23.312;2023-02-22T00:10:47;8.30;66.30
5808;DHT22;2930;42.678;23.312;2023-02-22T00:13:17;8.30;66.70
5808;DHT22;2930;42.678;23.312;2023-02-22T00:15:44;8.30;66.60
5808;DHT22;2930;42.678;23.312;2023-02-22T00:18:14;8.40;65.90
5808;DHT22;2930;42.678;23.312;2023-02-22T00:20:40;8.40;66.20
5808;DHT22;2930;42.678;23.312;2023-02-22T00:23:11;8.40;66.20
5808;DHT22;2930;42.678;23.312;2023-02-22T00:25:37;8.40;65.90
5808;DHT22;2930;42.678;23.312;2023-02-22T00:28:03;8.40;65.90
5808;DHT22;2930;42.678;23.312;2023-02-22T00:30:29;8.30;66.10
5808;DHT22;2930;42.678;23.312;2023-02-22T00:32:57;8.30;66.00
5808;DHT22;2930;42.678;23.312;2023-02-22T00:35:24;8.30;66.50
5808;DHT22;2930;42.678;23.312;2023-02-22T00:37:53;8.30;66.50
5808;DHT22;2930;42.678;23.312;2023-02-22T00:40:22;8.20;67.30
5808;DHT22;2930;42.678;23.312;2023-02-22T00:42:48;8.20;66.70
5808;DHT22;2930;42.678;23.312;2023-02-22T00:45:21;8.10;66.80
5808;DHT22;2930;42.678;23.312;2023-02-22T00:47:48;8.10;67.50
5808;DHT22;2930;42.678;23.312;2023-02-22T00:50:15;8.00;67.00
5808;DHT22;2930;42.678;23.312;2023-02-22T00:52:40;8.00;67.40
5808;DHT22;2930;42.678;23.312;2023-02-22T00:55:09;7.90;67.90
5808;DHT22;2930;42.678;23.312;2023-02-22T00:57:35;7.90;68.30
5808;DHT22;2930;42.678;23.312;2023-02-22T01:00:04;7.90;68.60
5808;DHT22;2930;42.678;23.312;2023-02-22T01:02:40;7.90;68.20
5808;DHT22;2930;42.678;23.312;2023-02-22T01:05:07;7.90;68.20
5808;DHT22;2930;42.678;23.312;2023-02-22T01:07:33;7.80;69.00
5808;DHT22;2930;42.678;23.312;2023-02-22T01:10:00;7.70;68.90
5808;DHT22;2930;42.678;23.312;2023-02-22T01:12:28;7.70;68.60
5808;DHT22;2930;42.678;23.312;2023-02-22T01:14:54;7.70;68.70
5808;DHT22;2930;42.678;23.312;2023-02-22T01:17:25;7.70;68.80
5808;DHT22;2930;42.678;23.312;2023-02-22T01:19:52;7.70;68.70
5808;DHT22;2930;42.678;23.312;2023-02-22T01:22:19;7.60;69.10
5808;DHT22;2930;42.678;23.312;2023-02-22T01:24:47;7.60;69.30
5808;DHT22;2930;42.678;23.312;2023-02-22T01:27:12;7.60;69.00
5808;DHT22;2930;42.678;23.312;2023-02-22T01:29:38;7.60;68.90
5808;DHT22;2930;42.678;23.312;2023-02-22T01:32:05;7.50;69.10
5808;DHT22;2930;42.678;23.312;2023-02-22T01:34:31;7.50;69.20
5808;DHT22;2930;42.678;23.312;2023-02-22T01:36:58;7.50;69.30
5808;DHT22;2930;42.678;23.312;2023-02-22T01:39:23;7.50;69.40
5808;DHT22;2930;42.678;23.312;2023-02-22T01:41:49;7.50;69.40
5808;DHT22;2930;42.678;23.312;2023-02-22T01:46:54;7.40;69.40
5808;DHT22;2930;42.678;23.312;2023-02-22T01:49:20;7.40;69.60
5808;DHT22;2930;42.678;23.312;2023-02-22T01:51:49;7.40;69.90
5808;DHT22;2930;42.678;23.312;2023-02-22T01:54:32;7.40;69.90
5808;DHT22;2930;42.678;23.312;2023-02-22T01:57:28;7.30;70.00
5808;DHT22;2930;42.678;23.312;2023-02-22T01:59:58;7.30;70.10
5808;DHT22;2930;42.678;23.312;2023-02-22T02:02:25;7.30;70.10
5808;DHT22;2930;42.678;23.312;2023-02-22T02:04:53;7.30;70.10
5808;DHT22;2930;42.678;23.312;2023-02-22T02:07:21;7.20;70.00
5808;DHT22;2930;42.678;23.312;2023-02-22T02:09:56;7.20;70.40
5808;DHT22;2930;42.678;23.312;2023-02-22T02:12:23;7.20;70.20
5808;DHT22;2930;42.678;23.312;2023-02-22T02:14:50;7.20;70.20
5808;DHT22;2930;42.678;23.312;2023-02-22T02:17:18;7.10;70.40
5808;DHT22;2930;42.678;23.312;2023-02-22T02:26:11;7.10;70.70
5808;DHT22;2930;42.678;23.312;2023-02-22T02:37:09;6.90;71.10
5808;DHT22;2930;42.678;23.312;2023-02-22T02:39:59;6.90;71.30
5808;DHT22;2930;42.678;23.312;2023-02-22T02:42:40;6.80;71.40
5808;DHT22;2930;42.678;23.312;2023-02-22T02:45:12;6.70;71.60
5808;DHT22;2930;42.678;23.312;2023-02-22T02:47:44;6.70;71.80
5808;DHT22;2930;42.678;23.312;2023-02-22T02:50:20;6.60;72.10
5808;DHT22;2930;42.678;23.312;2023-02-22T02:52:48;6.60;72.00
5808;DHT22;2930;42.678;23.312;2023-02-22T02:55:16;6.60;72.00
5808;DHT22;2930;42.678;23.312;2023-02-22T02:57:43;6.60;71.70
5808;DHT22;2930;42.678;23.312;2023-02-22T03:00:09;6.60;71.40
5808;DHT22;2930;42.678;23.312;2023-02-22T03:13:25;6.50;72.30
5808;DHT22;2930;42.678;23.312;2023-02-22T03:26:52;6.40;72.40
5808;DHT22;2930;42.678;23.312;2023-02-22T03:29:22;6.40;72.30
5808;DHT22;2930;42.678;23.312;2023-02-22T03:31:54;6.40;72.90
5808;DHT22;2930;42.678;23.312;2023-02-22T03:34:31;6.40;72.90
5808;DHT22;2930;42.678;23.312;2023-02-22T03:37:01;6.40;72.60
5808;DHT22;2930;42.678;23.312;2023-02-22T03:39:29;6.40;72.80
5808;DHT22;2930;42.678;23.312;2023-02-22T03:41:59;6.40;73.20
5808;DHT22;2930;42.678;23.312;2023-02-22T03:44:30;6.50;72.60
5808;DHT22;2930;42.678;23.312;2023-02-22T03:47:00;6.50;72.20
5808;DHT22;2930;42.678;23.312;2023-02-22T03:49:32;6.50;72.50
5808;DHT22;2930;42.678;23.312;2023-02-22T03:52:00;6.60;72.80
5808;DHT22;2930;42.678;23.312;2023-02-22T03:54:27;6.60;72.90
5808;DHT22;2930;42.678;23.312;2023-02-22T03:57:02;6.60;72.50
5808;DHT22;2930;42.678;23.312;2023-02-22T03:59:28;6.60;72.40
5808;DHT22;2930;42.678;23.312;2023-02-22T04:01:56;6.60;72.90
5808;DHT22;2930;42.678;23.312;2023-02-22T04:04:23;6.50;72.50
5808;DHT22;2930;42.678;23.312;2023-02-22T04:06:49;6.50;72.80
5808;DHT22;2930;42.678;23.312;2023-02-22T04:09:16;6.50;72.80
5808;DHT22;2930;42.678;23.312;2023-02-22T04:11:42;6.50;73.00
5808;DHT22;2930;42.678;23.312;2023-02-22T04:14:08;6.50;72.90
5808;DHT22;2930;42.678;23.312;2023-02-22T04:16:33;6.50;72.80
5808;DHT22;2930;42.678;23.312;2023-02-22T04:18:59;6.40;73.20
5808;DHT22;2930;42.678;23.312;2023-02-22T04:21:25;6.40;73.20
5808;DHT22;2930;42.678;23.312;2023-02-22T04:23:50;6.40;73.00
5808;DHT22;2930;42.678;23.312;2023-02-22T04:26:16;6.40;73.00
5808;DHT22;2930;42.678;23.312;2023-02-22T04:28:42;6.40;73.30
5808;DHT22;2930;42.678;23.312;2023-02-22T04:31:08;6.30;73.30
5808;DHT22;2930;42.678;23.312;2023-02-22T04:33:33;6.30;73.50
5808;DHT22;2930;42.678;23.312;2023-02-22T04:35:59;6.30;73.50
5808;DHT22;2930;42.678;23.312;2023-02-22T04:38:25;6.30;73.90
5808;DHT22;2930;42.678;23.312;2023-02-22T04:40:52;6.20;74.00
5808;DHT22;2930;42.678;23.312;2023-02-22T04:43:18;6.10;74.60
5808;DHT22;2930;42.678;23.312;2023-02-22T04:45:44;6.10;74.10
5808;DHT22;2930;42.678;23.312;2023-02-22T04:48:10;6.00;74.40
5808;DHT22;2930;42.678;23.312;2023-02-22T04:50:35;5.90;74.80
5808;DHT22;2930;42.678;23.312;2023-02-22T04:53:01;5.90;74.90
5808;DHT22;2930;42.678;23.312;2023-02-22T04:55:27;5.80;75.00
5808;DHT22;2930;42.678;23.312;2023-02-22T04:57:54;5.70;75.10
5808;DHT22;2930;42.678;23.312;2023-02-22T05:00:20;5.70;75.20
5808;DHT22;2930;42.678;23.312;2023-02-22T05:02:47;5.70;75.30
5808;DHT22;2930;42.678;23.312;2023-02-22T05:05:14;5.60;75.40
5808;DHT22;2930;42.678;23.312;2023-02-22T05:07:40;5.60;75.40
5808;DHT22;2930;42.678;23.312;2023-02-22T05:10:07;5.50;75.80
5808;DHT22;2930;42.678;23.312;2023-02-22T05:12:34;5.50;75.90
5808;DHT22;2930;42.678;23.312;2023-02-22T05:15:00;5.50;76.40
5808;DHT22;2930;42.678;23.312;2023-02-22T05:17:25;5.40;76.50
5808;DHT22;2930;42.678;23.312;2023-02-22T05:19:51;5.40;76.80
5808;DHT22;2930;42.678;23.312;2023-02-22T05:22:17;5.40;76.40
5808;DHT22;2930;42.678;23.312;2023-02-22T05:24:43;5.40;76.50
5808;DHT22;2930;42.678;23.312;2023-02-22T05:27:09;5.40;76.70
5808;DHT22;2930;42.678;23.312;2023-02-22T05:29:34;5.30;76.70
5808;DHT22;2930;42.678;23.312;2023-02-22T05:32:03;5.30;76.70
5808;DHT22;2930;42.678;23.312;2023-02-22T05:34:29;5.30;76.70
5808;DHT22;2930;42.678;23.312;2023-02-22T05:36:55;5.30;76.70
5808;DHT22;2930;42.678;23.312;2023-02-22T05:39:21;5.30;76.60
5808;DHT22;2930;42.678;23.312;2023-02-22T05:41:46;5.30;76.50
5808;DHT22;2930;42.678;23.312;2023-02-22T05:44:12;5.40;76.20
5808;DHT22;2930;42.678;23.312;2023-02-22T05:46:38;5.40;76.50
5808;DHT22;2930;42.678;23.312;2023-02-22T05:49:03;5.30;76.50
5808;DHT22;2930;42.678;23.312;2023-02-22T05:51:29;5.30;76.50
5808;DHT22;2930;42.678;23.312;2023-02-22T05:53:55;5.40;76.80
5808;DHT22;2930;42.678;23.312;2023-02-22T05:56:25;5.30;77.00
5808;DHT22;2930;42.678;23.312;2023-02-22T05:58:51;5.30;77.00
5808;DHT22;2930;42.678;23.312;2023-02-22T06:01:17;5.40;76.30
5808;DHT22;2930;42.678;23.312;2023-02-22T06:03:46;5.40;77.00
5808;DHT22;2930;42.678;23.312;2023-02-22T06:06:12;5.40;77.00
5808;DHT22;2930;42.678;23.312;2023-02-22T06:08:37;5.50;76.80
5808;DHT22;2930;42.678;23.312;2023-02-22T06:11:03;5.50;76.90
5808;DHT22;2930;42.678;23.312;2023-02-22T06:13:29;5.60;76.90
5808;DHT22;2930;42.678;23.312;2023-02-22T06:15:54;5.60;76.80
5808;DHT22;2930;42.678;23.312;2023-02-22T06:18:20;5.60;76.70
5808;DHT22;2930;42.678;23.312;2023-02-22T06:20:46;5.70;76.40
5808;DHT22;2930;42.678;23.312;2023-02-22T06:23:11;5.70;75.70
5808;DHT22;2930;42.678;23.312;2023-02-22T06:25:37;5.80;75.80
5808;DHT22;2930;42.678;23.312;2023-02-22T06:28:03;5.80;75.80
5808;DHT22;2930;42.678;23.312;2023-02-22T06:30:29;5.90;75.80
5808;DHT22;2930;42.678;23.312;2023-02-22T06:32:55;5.90;75.20
5808;DHT22;2930;42.678;23.312;2023-02-22T06:35:21;6.00;75.60
5808;DHT22;2930;42.678;23.312;2023-02-22T06:37:47;6.00;76.00
5808;DHT22;2930;42.678;23.312;2023-02-22T06:40:13;6.00;75.70
5808;DHT22;2930;42.678;23.312;2023-02-22T06:42:39;6.10;75.50
5808;DHT22;2930;42.678;23.312;2023-02-22T06:45:06;6.10;75.30
5808;DHT22;2930;42.678;23.312;2023-02-22T06:47:32;6.10;75.00
5808;DHT22;2930;42.678;23.312;2023-02-22T06:49:58;6.20;75.20
5808;DHT22;2930;42.678;23.312;2023-02-22T06:52:25;6.30;75.00
5808;DHT22;2930;42.678;23.312;2023-02-22T06:54:51;6.40;75.00
5808;DHT22;2930;42.678;23.312;2023-02-22T06:57:17;6.50;75.20
5808;DHT22;2930;42.678;23.312;2023-02-22T06:59:43;6.60;75.00
5808;DHT22;2930;42.678;23.312;2023-02-22T07:02:13;6.70;74.90
5808;DHT22;2930;42.678;23.312;2023-02-22T07:04:39;6.80;74.70
5808;DHT22;2930;42.678;23.312;2023-02-22T07:07:05;6.90;74.70
5808;DHT22;2930;42.678;23.312;2023-02-22T07:09:30;7.10;74.70
5808;DHT22;2930;42.678;23.312;2023-02-22T07:11:56;7.20;74.60
5808;DHT22;2930;42.678;23.312;2023-02-22T07:14:22;7.40;74.50
5808;DHT22;2930;42.678;23.312;2023-02-22T07:16:48;7.50;74.20
5808;DHT22;2930;42.678;23.312;2023-02-22T07:19:14;7.70;73.80
5808;DHT22;2930;42.678;23.312;2023-02-22T07:21:39;7.90;73.30
5808;DHT22;2930;42.678;23.312;2023-02-22T07:24:05;8.10;72.80
5808;DHT22;2930;42.678;23.312;2023-02-22T07:26:38;8.30;71.60
5808;DHT22;2930;42.678;23.312;2023-02-22T07:29:05;8.70;70.60
5808;DHT22;2930;42.678;23.312;2023-02-22T07:31:37;9.30;69.70
5808;DHT22;2930;42.678;23.312;2023-02-22T07:34:03;10.10;68.80
5808;DHT22;2930;42.678;23.312;2023-02-22T07:36:28;11.10;66.60
5808;DHT22;2930;42.678;23.312;2023-02-22T07:38:54;12.20;65.60
5808;DHT22;2930;42.678;23.312;2023-02-22T07:41:19;13.40;63.90
5808;DHT22;2930;42.678;23.312;2023-02-22T07:43:47;14.50;61.80
5808;DHT22;2930;42.678;23.312;2023-02-22T07:46:13;15.50;58.60
5808;DHT22;2930;42.678;23.312;2023-02-22T07:48:39;16.40;56.00
5808;DHT22;2930;42.678;23.312;2023-02-22T07:51:04;17.20;56.20
5808;DHT22;2930;42.678;23.312;2023-02-22T07:53:31;17.90;53.60
5808;DHT22;2930;42.678;23.312;2023-02-22T07:55:59;18.70;53.20
5808;DHT22;2930;42.678;23.312;2023-02-22T07:58:27;19.40;52.60
5808;DHT22;2930;42.678;23.312;2023-02-22T08:00:53;20.00;52.20
5808;DHT22;2930;42.678;23.312;2023-02-22T08:03:23;20.80;50.30
5808;DHT22;2930;42.678;23.312;2023-02-22T08:05:51;21.40;49.00
5808;DHT22;2930;42.678;23.312;2023-02-22T08:08:17;22.10;48.30
5808;DHT22;2930;42.678;23.312;2023-02-22T08:10:44;22.80;49.90
5808;DHT22;2930;42.678;23.312;2023-02-22T08:13:10;23.50;48.40
5808;DHT22;2930;42.678;23.312;2023-02-22T08:15:38;24.20;48.40
5808;DHT22;2930;42.678;23.312;2023-02-22T08:18:12;24.80;45.50
5808;DHT22;2930;42.678;23.312;2023-02-22T08:20:40;25.10;46.50
5808;DHT22;2930;42.678;23.312;2023-02-22T08:23:07;25.70;46.70
5808;DHT22;2930;42.678;23.312;2023-02-22T08:25:33;26.10;45.10
5808;DHT22;2930;42.678;23.312;2023-02-22T08:28:02;26.40;44.90
5808;DHT22;2930;42.678;23.312;2023-02-22T08:30:30;26.90;44.00
5808;DHT22;2930;42.678;23.312;2023-02-22T08:32:56;27.30;44.70
5808;DHT22;2930;42.678;23.312;2023-02-22T08:35:23;27.90;44.60
5808;DHT22;2930;42.678;23.312;2023-02-22T08:37:51;28.40;43.40
5808;DHT22;2930;42.678;23.312;2023-02-22T08:40:22;29.00;43.40
5808;DHT22;2930;42.678;23.312;2023-02-22T08:42:48;29.40;42.20
5808;DHT22;2930;42.678;23.312;2023-02-22T08:45:14;29.60;40.70
5808;DHT22;2930;42.678;23.312;2023-02-22T08:47:40;29.80;41.90
5808;DHT22;2930;42.678;23.312;2023-02-22T08:50:06;30.10;42.60
5808;DHT22;2930;42.678;23.312;2023-02-22T08:52:32;30.60;41.80
5808;DHT22;2930;42.678;23.312;2023-02-22T08:54:59;31.10;41.80
5808;DHT22;2930;42.678;23.312;2023-02-22T08:57:25;31.60;41.50
5808;DHT22;2930;42.678;23.312;2023-02-22T08:59:51;32.00;41.40
5808;DHT22;2930;42.678;23.312;2023-02-22T09:02:20;32.40;41.10
5808;DHT22;2930;42.678;23.312;2023-02-22T09:04:47;32.80;39.60
5808;DHT22;2930;42.678;23.312;2023-02-22T09:07:14;32.90;41.20
5808;DHT22;2930;42.678;23.312;2023-02-22T09:09:42;33.10;38.40
5808;DHT22;2930;42.678;23.312;2023-02-22T09:12:07;32.80;40.30
5808;DHT22;2930;42.678;23.312;2023-02-22T09:14:33;32.80;41.30
5808;DHT22;2930;42.678;23.312;2023-02-22T09:16:59;33.20;40.00
5808;DHT22;2930;42.678;23.312;2023-02-22T09:19:24;33.50;40.20
5808;DHT22;2930;42.678;23.312;2023-02-22T09:21:54;33.80;38.90
5808;DHT22;2930;42.678;23.312;2023-02-22T09:24:19;33.90;39.30
5808;DHT22;2930;42.678;23.312;2023-02-22T09:26:46;34.10;39.50
5808;DHT22;2930;42.678;23.312;2023-02-22T09:29:12;34.30;39.50
5808;DHT22;2930;42.678;23.312;2023-02-22T09:31:39;34.10;38.50
5808;DHT22;2930;42.678;23.312;2023-02-22T09:34:06;33.70;37.80
5808;DHT22;2930;42.678;23.312;2023-02-22T09:36:39;33.00;38.10
5808;DHT22;2930;42.678;23.312;2023-02-22T09:39:06;32.40;38.00
5808;DHT22;2930;42.678;23.312;2023-02-22T09:41:42;32.10;38.70
5808;DHT22;2930;42.678;23.312;2023-02-22T09:46:38;31.80;38.40
5808;DHT22;2930;42.678;23.312;2023-02-22T09:54:24;30.80;39.20
5808;DHT22;2930;42.678;23.312;2023-02-22T09:56:55;30.50;38.40
5808;DHT22;2930;42.678;23.312;2023-02-22T09:59:26;30.50;39.20
5808;DHT22;2930;42.678;23.312;2023-02-22T10:01:59;30.60;39.80
5808;DHT22;2930;42.678;23.312;2023-02-22T10:07:25;31.10;37.90
5808;DHT22;2930;42.678;23.312;2023-02-22T10:09:53;31.40;38.60
5808;DHT22;2930;42.678;23.312;2023-02-22T10:12:37;31.50;37.80
5808;DHT22;2930;42.678;23.312;2023-02-22T10:18:12;30.20;38.70
5808;DHT22;2930;42.678;23.312;2023-02-22T10:23:34;30.00;39.90
5808;DHT22;2930;42.678;23.312;2023-02-22T10:28:57;31.10;39.30
5808;DHT22;2930;42.678;23.312;2023-02-22T10:31:58;31.90;38.60
5808;DHT22;2930;42.678;23.312;2023-02-22T10:34:28;32.30;37.00
5808;DHT22;2930;42.678;23.312;2023-02-22T10:36:58;32.70;37.90
5808;DHT22;2930;42.678;23.312;2023-02-22T10:39:32;32.80;39.40
5808;DHT22;2930;42.678;23.312;2023-02-22T10:42:03;33.00;37.60
5808;DHT22;2930;42.678;23.312;2023-02-22T10:44:38;32.90;38.00
5808;DHT22;2930;42.678;23.312;2023-02-22T10:47:07;32.90;37.80
5808;DHT22;2930;42.678;23.312;2023-02-22T10:49:56;33.10;39.20
5808;DHT22;2930;42.678;23.312;2023-02-22T10:52:29;33.30;36.80
5808;DHT22;2930;42.678;23.312;2023-02-22T10:54:57;33.50;36.90
5808;DHT22;2930;42.678;23.312;2023-02-22T10:57:34;33.10;37.20
5808;DHT22;2930;42.678;23.312;2023-02-22T11:00:27;32.80;37.00
5808;DHT22;2930;42.678;23.312;2023-02-22T11:02:57;32.60;36.90
5808;DHT22;2930;42.678;23.312;2023-02-22T11:07:51;33.00;38.80
5808;DHT22;2930;42.678;23.312;2023-02-22T11:10:37;33.30;37.90
5808;DHT22;2930;42.678;23.312;2023-02-22T11:13:29;33.70;37.70
5808;DHT22;2930;42.678;23.312;2023-02-22T11:16:01;34.00;37.00
5808;DHT22;2930;42.678;23.312;2023-02-22T11:18:40;34.10;36.60
5808;DHT22;2930;42.678;23.312;2023-02-22T11:21:09;33.00;35.10
5808;DHT22;2930;42.678;23.312;2023-02-22T11:23:37;31.40;38.80
5808;DHT22;2930;42.678;23.312;2023-02-22T11:26:09;31.30;39.10
5808;DHT22;2930;42.678;23.312;2023-02-22T11:28:43;31.70;39.60
5808;DHT22;2930;42.678;23.312;2023-02-22T11:31:27;32.20;37.50
5808;DHT22;2930;42.678;23.312;2023-02-22T11:33:56;33.00;37.00
5808;DHT22;2930;42.678;23.312;2023-02-22T11:38:57;33.90;35.20
5808;DHT22;2930;42.678;23.312;2023-02-22T11:41:33;33.50;36.60
5808;DHT22;2930;42.678;23.312;2023-02-22T11:44:25;33.30;37.80
5808;DHT22;2930;42.678;23.312;2023-02-22T11:46:57;33.40;35.70
5808;DHT22;2930;42.678;23.312;2023-02-22T11:49:34;33.30;36.60
5808;DHT22;2930;42.678;23.312;2023-02-22T12:00:30;32.40;36.00
5808;DHT22;2930;42.678;23.312;2023-02-22T12:08:36;32.50;38.00
5808;DHT22;2930;42.678;23.312;2023-02-22T12:11:21;32.40;36.80
5808;DHT22;2930;42.678;23.312;2023-02-22T12:19:10;32.40;36.30
5808;DHT22;2930;42.678;23.312;2023-02-22T12:21:42;32.30;36.50
5808;DHT22;2930;42.678;23.312;2023-02-22T12:24:15;32.00;36.40
5808;DHT22;2930;42.678;23.312;2023-02-22T12:26:47;31.70;36.60
5808;DHT22;2930;42.678;23.312;2023-02-22T12:31:48;31.60;37.00
5808;DHT22;2930;42.678;23.312;2023-02-22T12:51:31;28.80;38.40
5808;DHT22;2930;42.678;23.312;2023-02-22T12:54:22;29.00;38.00
5808;DHT22;2930;42.678;23.312;2023-02-22T12:56:53;29.40;37.80
5808;DHT22;2930;42.678;23.312;2023-02-22T12:59:28;29.70;38.00
5808;DHT22;2930;42.678;23.312;2023-02-22T13:04:34;30.10;37.80
5808;DHT22;2930;42.678;23.312;2023-02-22T13:07:09;30.10;37.60
5808;DHT22;2930;42.678;23.312;2023-02-22T13:15:31;29.80;37.50
5808;DHT22;2930;42.678;23.312;2023-02-22T13:23:44;28.40;37.00
5808;DHT22;2930;42.678;23.312;2023-02-22T13:26:30;28.20;38.10
5808;DHT22;2930;42.678;23.312;2023-02-22T13:29:03;27.90;38.60
5808;DHT22;2930;42.678;23.312;2023-02-22T13:31:35;27.80;38.50
5808;DHT22;2930;42.678;23.312;2023-02-22T13:52:53;28.00;39.80
5808;DHT22;2930;42.678;23.312;2023-02-22T13:55:28;28.00;39.70
5808;DHT22;2930;42.678;23.312;2023-02-22T13:58:10;28.00;38.90
5808;DHT22;2930;42.678;23.312;2023-02-22T14:00:49;28.00;39.60
5808;DHT22;2930;42.678;23.312;2023-02-22T14:03:29;28.10;39.40
5808;DHT22;2930;42.678;23.312;2023-02-22T14:06:04;28.20;39.40
5808;DHT22;2930;42.678;23.312;2023-02-22T14:13:26;27.90;40.00
5808;DHT22;2930;42.678;23.312;2023-02-22T14:23:42;26.70;41.00
5808;DHT22;2930;42.678;23.312;2023-02-22T14:26:15;26.70;41.10
5808;DHT22;2930;42.678;23.312;2023-02-22T14:31:28;26.40;41.00
5808;DHT22;2930;42.678;23.312;2023-02-22T14:36:58;26.00;41.70
5808;DHT22;2930;42.678;23.312;2023-02-22T14:50:46;25.60;41.80
5808;DHT22;2930;42.678;23.312;2023-02-22T14:53:53;25.30;42.00
5808;DHT22;2930;42.678;23.312;2023-02-22T14:57:00;25.00;42.30
5808;DHT22;2930;42.678;23.312;2023-02-22T15:01:46;24.50;43.20
5808;DHT22;2930;42.678;23.312;2023-02-22T15:06:50;24.10;42.80
5808;DHT22;2930;42.678;23.312;2023-02-22T15:09:27;24.00;42.90
5808;DHT22;2930;42.678;23.312;2023-02-22T15:12:13;23.70;43.20
5808;DHT22;2930;42.678;23.312;2023-02-22T15:14:42;23.60;43.70
5808;DHT22;2930;42.678;23.312;2023-02-22T15:17:21;23.30;44.00
5808;DHT22;2930;42.678;23.312;2023-02-22T15:19:50;23.20;44.10
5808;DHT22;2930;42.678;23.312;2023-02-22T15:22:26;23.10;44.70
5808;DHT22;2930;42.678;23.312;2023-02-22T15:24:59;22.90;45.00
5808;DHT22;2930;42.678;23.312;2023-02-22T15:27:25;22.70;45.40
5808;DHT22;2930;42.678;23.312;2023-02-22T15:29:58;22.50;45.80
5808;DHT22;2930;42.678;23.312;2023-02-22T15:32:31;22.30;46.40
5808;DHT22;2930;42.678;23.312;2023-02-22T15:35:16;22.20;46.40
5808;DHT22;2930;42.678;23.312;2023-02-22T15:37:44;22.00;46.50
5808;DHT22;2930;42.678;23.312;2023-02-22T15:40:18;21.70;46.60
5808;DHT22;2930;42.678;23.312;2023-02-22T15:42:50;21.40;47.40
5808;DHT22;2930;42.678;23.312;2023-02-22T15:45:19;20.90;47.90
5808;DHT22;2930;42.678;23.312;2023-02-22T15:47:48;20.50;48.80
5808;DHT22;2930;42.678;23.312;2023-02-22T15:50:27;20.20;49.00
5808;DHT22;2930;42.678;23.312;2023-02-22T15:53:06;20.00;49.30
5808;DHT22;2930;42.678;23.312;2023-02-22T15:55:41;19.70;49.60
5808;DHT22;2930;42.678;23.312;2023-02-22T16:00:41;19.10;50.40
5808;DHT22;2930;42.678;23.312;2023-02-22T16:03:10;18.80;50.60
5808;DHT22;2930;42.678;23.312;2023-02-22T16:05:56;18.60;51.50
5808;DHT22;2930;42.678;23.312;2023-02-22T16:08:35;18.40;51.80
5808;DHT22;2930;42.678;23.312;2023-02-22T16:11:08;18.10;52.30
5808;DHT22;2930;42.678;23.312;2023-02-22T16:13:39;17.90;52.60
5808;DHT22;2930;42.678;23.312;2023-02-22T16:16:19;17.70;52.70
5808;DHT22;2930;42.678;23.312;2023-02-22T16:18:49;17.60;52.90
5808;DHT22;2930;42.678;23.312;2023-02-22T16:21:17;17.40;53.30
5808;DHT22;2930;42.678;23.312;2023-02-22T16:26:35;17.10;53.70
5808;DHT22;2930;42.678;23.312;2023-02-22T16:29:07;17.00;54.50
5808;DHT22;2930;42.678;23.312;2023-02-22T16:31:35;16.90;54.20
5808;DHT22;2930;42.678;23.312;2023-02-22T16:34:03;16.80;54.80
5808;DHT22;2930;42.678;23.312;2023-02-22T16:36:56;16.60;54.90
5808;DHT22;2930;42.678;23.312;2023-02-22T16:39:29;16.60;55.50
5808;DHT22;2930;42.678;23.312;2023-02-22T16:41:58;16.50;55.50
5808;DHT22;2930;42.678;23.312;2023-02-22T16:44:24;16.40;55.60
5808;DHT22;2930;42.678;23.312;2023-02-22T16:46:51;16.30;56.10
5808;DHT22;2930;42.678;23.312;2023-02-22T16:49:17;16.10;57.10
5808;DHT22;2930;42.678;23.312;2023-02-22T16:51:48;16.00;56.80
5808;DHT22;2930;42.678;23.312;2023-02-22T16:54:33;15.90;57.00
5808;DHT22;2930;42.678;23.312;2023-02-22T16:57:02;15.80;57.00
5808;DHT22;2930;42.678;23.312;2023-02-22T16:59:31;15.70;56.90
5808;DHT22;2930;42.678;23.312;2023-02-22T17:01:57;15.60;57.50
5808;DHT22;2930;42.678;23.312;2023-02-22T17:04:24;15.50;57.80
5808;DHT22;2930;42.678;23.312;2023-02-22T17:06:51;15.50;57.70
5808;DHT22;2930;42.678;23.312;2023-02-22T17:09:18;15.50;57.90
5808;DHT22;2930;42.678;23.312;2023-02-22T17:11:48;15.40;57.80
5808;DHT22;2930;42.678;23.312;2023-02-22T17:14:18;15.30;58.30
5808;DHT22;2930;42.678;23.312;2023-02-22T17:16:51;15.10;59.40
5808;DHT22;2930;42.678;23.312;2023-02-22T17:19:21;15.00;60.50
5808;DHT22;2930;42.678;23.312;2023-02-22T17:21:48;14.70;61.50
5808;DHT22;2930;42.678;23.312;2023-02-22T17:24:17;14.60;60.60
5808;DHT22;2930;42.678;23.312;2023-02-22T17:26:44;14.40;60.80
5808;DHT22;2930;42.678;23.312;2023-02-22T17:29:10;14.30;62.00
5808;DHT22;2930;42.678;23.312;2023-02-22T17:31:38;14.10;62.50
5808;DHT22;2930;42.678;23.312;2023-02-22T17:34:04;14.20;62.10
5808;DHT22;2930;42.678;23.312;2023-02-22T17:36:32;14.20;61.30
5808;DHT22;2930;42.678;23.312;2023-02-22T17:38:58;14.20;61.30
5808;DHT22;2930;42.678;23.312;2023-02-22T17:41:25;14.20;61.30
5808;DHT22;2930;42.678;23.312;2023-02-22T17:43:51;14.20;61.10
5808;DHT22;2930;42.678;23.312;2023-02-22T17:46:19;14.20;61.10
5808;DHT22;2930;42.678;23.312;2023-02-22T17:48:45;14.20;61.40
5808;DHT22;2930;42.678;23.312;2023-02-22T17:51:13;14.20;61.10
5808;DHT22;2930;42.678;23.312;2023-02-22T17:53:39;14.20;61.30
5808;DHT22;2930;42.678;23.312;2023-02-22T17:56:09;14.10;61.40
5808;DHT22;2930;42.678;23.312;2023-02-22T17:58:37;14.10;61.40
5808;DHT22;2930;42.678;23.312;2023-02-22T18:01:03;14.00;61.50
5808;DHT22;2930;42.678;23.312;2023-02-22T18:03:29;14.00;61.60
5808;DHT22;2930;42.678;23.312;2023-02-22T18:05:58;14.00;61.50
5808;DHT22;2930;42.678;23.312;2023-02-22T18:08:25;13.90;61.60
5808;DHT22;2930;42.678;23.312;2023-02-22T18:10:51;13.90;61.60
5808;DHT22;2930;42.678;23.312;2023-02-22T18:13:22;13.80;63.00
5808;DHT22;2930;42.678;23.312;2023-02-22T18:15:48;13.70;62.20
5808;DHT22;2930;42.678;23.312;2023-02-22T18:18:15;13.70;62.60
5808;DHT22;2930;42.678;23.312;2023-02-22T18:20:46;13.60;62.50
5808;DHT22;2930;42.678;23.312;2023-02-22T18:23:18;13.60;62.60
5808;DHT22;2930;42.678;23.312;2023-02-22T18:25:49;13.50;63.10
5808;DHT22;2930;42.678;23.312;2023-02-22T18:28:15;13.40;63.00
5808;DHT22;2930;42.678;23.312;2023-02-22T18:30:42;13.40;63.20
5808;DHT22;2930;42.678;23.312;2023-02-22T18:33:08;13.30;63.50
5808;DHT22;2930;42.678;23.312;2023-02-22T18:35:38;13.20;63.70
5808;DHT22;2930;42.678;23.312;2023-02-22T18:38:05;13.20;63.60
5808;DHT22;2930;42.678;23.312;2023-02-22T18:40:32;13.10;63.70
5808;DHT22;2930;42.678;23.312;2023-02-22T18:42:57;13.10;63.90
5808;DHT22;2930;42.678;23.312;2023-02-22T18:45:23;13.10;63.80
5808;DHT22;2930;42.678;23.312;2023-02-22T18:47:49;13.00;64.00
5808;DHT22;2930;42.678;23.312;2023-02-22T18:50:14;13.00;64.10
5808;DHT22;2930;42.678;23.312;2023-02-22T18:52:42;13.00;64.40
5808;DHT22;2930;42.678;23.312;2023-02-22T18:55:12;12.90;64.10
5808;DHT22;2930;42.678;23.312;2023-02-22T18:57:39;12.80;64.60
5808;DHT22;2930;42.678;23.312;2023-02-22T19:00:05;12.70;64.60
5808;DHT22;2930;42.678;23.312;2023-02-22T19:02:31;12.70;64.90